Terminal Aerodrome Forecast
Issued by NWS

Home | Current Version | Previous Version | Graphics & Text | Print | Product List | Glossary On
Versions: 1 2 3 4 5 6 7 8 9 10 11 12 13 14 15 16 17 18 19 20 21 22 23 24 25 26 27 28 29 30 31 32 33 34
030
FTUS43 KGRB 192337
TAFRHI
TAF
KRHI 192337Z 2000/2024 15003KT P6SM BKN250
     FM200500 14006KT P6SM VCSH SCT040 BKN100 WS010/16030KT
      TEMPO 2005/2008 3SM TSRA BR OVC025CB
     FM200800 16003KT 5SM -SHRA BR BKN012
      TEMPO 2008/2011 2SM -TSRA OVC008CB
     FM201100 28007KT P6SM SCT015 BKN025
     FM201500 28007KT P6SM SCT035=

USA.gov is the U.S. government's official web portal to all federal, state and local government web resources and services.